Time;durP1;ratioP1;P1;durP2;ratioP2;P2;SDS_P1;SDS_P2;PMS_P1;PMS_P2;Temp;Humidity;BMP_temperature;BMP_pressure;BME280_temperature;BME280_humidity;BME280_pressure;Samples;Min_cycle;Max_cycle;Signal;HPM_P1;HPM_P2
2023/08/23 00:01:12;;;;;;;6.88;2.15;;;22.80;99.70;;;;;;4964769;28;20209;-79
2023/08/23 00:03:37;;;;;;;1.60;1.50;;;22.70;99.60;;;;;;4972099;28;20034;-79
2023/08/23 00:06:03;;;;;;;4.60;1.75;;;22.70;99.40;;;;;;4972387;28;20035;-78
2023/08/23 00:08:29;;;;;;;3.42;1.52;;;22.90;98.80;;;;;;4972233;28;20030;-77
2023/08/23 00:10:54;;;;;;;2.80;1.77;;;22.90;98.90;;;;;;4953502;28;20038;-76
2023/08/23 00:13:21;;;;;;;3.15;1.58;;;22.90;98.80;;;;;;4971880;28;20035;-77
2023/08/23 00:15:47;;;;;;;2.38;1.40;;;22.90;98.50;;;;;;4971922;28;20063;-79
2023/08/23 00:18:12;;;;;;;2.22;1.80;;;22.90;98.60;;;;;;4954124;28;20046;-78
2023/08/23 00:20:38;;;;;;;2.63;2.00;;;22.90;98.50;;;;;;4971549;28;20090;-79
2023/08/23 00:23:04;;;;;;;2.70;1.55;;;22.90;98.50;;;;;;4971797;28;20031;-78
2023/08/23 00:25:29;;;;;;;3.13;1.70;;;22.80;98.50;;;;;;4972029;28;20384;-76
2023/08/23 00:27:55;;;;;;;7.70;1.65;;;22.80;98.80;;;;;;4971793;28;20119;-79
2023/08/23 00:30:21;;;;;;;2.58;1.58;;;22.80;99.00;;;;;;4971791;28;20022;-79
2023/08/23 00:32:46;;;;;;;2.17;1.70;;;22.70;99.20;;;;;;4971333;28;20027;-79
2023/08/23 00:35:12;;;;;;;4.07;1.92;;;22.60;99.20;;;;;;4971769;28;20121;-79
2023/08/23 00:37:38;;;;;;;10.27;1.70;;;22.60;99.70;;;;;;4971514;28;20121;-79
2023/08/23 00:40:05;;;;;;;7.45;1.80;;;22.60;99.80;;;;;;4971917;28;20023;-79
2023/08/23 00:42:31;;;;;;;2.38;1.52;;;22.40;99.90;;;;;;4970092;28;20030;-79
2023/08/23 00:44:56;;;;;;;1.77;1.42;;;22.40;99.90;;;;;;4953999;28;20158;-78
2023/08/23 00:47:22;;;;;;;2.53;1.73;;;22.30;99.90;;;;;;4971222;28;20027;-79
2023/08/23 00:49:48;;;;;;;2.58;1.55;;;22.30;99.90;;;;;;4953720;28;20041;-79
2023/08/23 00:52:15;;;;;;;3.33;1.75;;;22.20;99.90;;;;;;4971550;28;20077;-78
2023/08/23 00:54:41;;;;;;;3.70;1.50;;;22.00;99.90;;;;;;4970917;28;20459;-79
2023/08/23 00:57:07;;;;;;;2.35;1.45;;;22.00;99.90;;;;;;4970697;28;20538;-77
2023/08/23 00:59:35;;;;;;;4.78;1.73;;;21.90;99.90;;;;;;4953360;28;20521;-78
2023/08/23 01:02:01;;;;;;;1.83;1.55;;;21.80;99.90;;;;;;4952987;28;20165;-79
2023/08/23 01:04:27;;;;;;;4.50;2.53;;;21.70;99.90;;;;;;4969607;28;20501;-78
2023/08/23 01:07:13;;;;;;;4.95;1.80;;;21.70;99.90;;;;;;4969637;28;20424;-78
2023/08/23 01:09:57;;;;;;;6.05;2.00;;;21.60;99.90;;;;;;4971090;28;20076;-78
2023/08/23 01:12:29;;;;;;;2.60;1.67;;;21.60;99.90;;;;;;4971439;28;20077;-79
2023/08/23 01:15:16;;;;;;;5.05;2.03;;;21.50;99.90;;;;;;4971020;28;20023;-78
2023/08/23 01:17:43;;;;;;;2.95;2.05;;;21.40;99.90;;;;;;4969225;28;20395;-79
2023/08/23 01:20:13;;;;;;;2.75;1.60;;;21.30;99.90;;;;;;4970430;28;20037;-78
2023/08/23 01:22:45;;;;;;;2.05;1.85;;;21.30;99.90;;;;;;4970809;28;20019;-78
2023/08/23 01:25:13;;;;;;;3.67;1.98;;;21.20;99.90;;;;;;4970940;28;20034;-78
2023/08/23 01:27:38;;;;;;;3.08;1.92;;;21.20;99.90;;;;;;4970737;28;20019;-79
2023/08/23 01:30:04;;;;;;;4.78;1.45;;;21.10;99.90;;;;;;4970760;28;20050;-79
2023/08/23 01:32:40;;;;;;;2.00;1.85;;;21.10;99.90;;;;;;4970414;28;20023;-78
2023/08/23 01:35:19;;;;;;;1.55;1.23;;;21.10;99.90;;;;;;4970852;28;20027;-78
2023/08/23 01:37:51;;;;;;;6.00;2.42;;;21.10;99.90;;;;;;4953039;28;20550;-78
2023/08/23 01:40:18;;;;;;;2.58;1.35;;;21.10;99.90;;;;;;4968982;28;20042;-78
2023/08/23 01:42:44;;;;;;;2.53;1.55;;;21.10;99.90;;;;;;4970798;28;20423;-78
2023/08/23 01:45:10;;;;;;;2.53;1.30;;;21.00;99.90;;;;;;4970792;28;20033;-78
2023/08/23 01:47:36;;;;;;;4.43;2.00;;;21.00;99.90;;;;;;4970408;28;20102;-78
2023/08/23 01:50:02;;;;;;;5.05;1.88;;;20.90;99.90;;;;;;4970625;28;20065;-78
2023/08/23 01:52:28;;;;;;;2.35;2.00;;;20.90;99.90;;;;;;4970456;28;20034;-78
2023/08/23 01:54:53;;;;;;;5.68;2.38;;;20.90;99.90;;;;;;4970491;28;20027;-79
2023/08/23 01:57:19;;;;;;;5.28;1.90;;;20.80;99.90;;;;;;4970140;28;20023;-79
2023/08/23 01:59:46;;;;;;;2.05;1.70;;;20.80;99.90;;;;;;4970068;28;20400;-78
2023/08/23 02:02:11;;;;;;;2.33;1.92;;;20.70;99.90;;;;;;4969899;28;20018;-78
2023/08/23 02:04:37;;;;;;;1.70;1.55;;;20.70;99.90;;;;;;4970201;28;20077;-78
2023/08/23 02:07:03;;;;;;;1.52;1.40;;;20.70;99.90;;;;;;4970053;28;20022;-78
2023/08/23 02:09:31;;;;;;;3.33;1.95;;;20.70;99.90;;;;;;4952956;28;20026;-78
2023/08/23 02:11:56;;;;;;;9.50;2.45;;;20.70;99.90;;;;;;4969994;28;20074;-78
2023/08/23 02:14:22;;;;;;;2.53;2.15;;;20.60;99.90;;;;;;4969538;28;20018;-79
2023/08/23 02:16:48;;;;;;;5.65;1.60;;;20.60;99.90;;;;;;4952097;28;20027;-79
2023/08/23 02:19:13;;;;;;;1.63;1.45;;;20.70;99.90;;;;;;4969206;28;20061;-78
2023/08/23 02:21:39;;;;;;;2.17;1.67;;;20.60;99.90;;;;;;4968514;28;20109;-79
2023/08/23 02:24:05;;;;;;;2.95;1.65;;;20.70;99.90;;;;;;4968341;28;20061;-78
2023/08/23 02:26:30;;;;;;;2.72;1.75;;;20.60;99.90;;;;;;4968031;28;20023;-79
2023/08/23 02:28:56;;;;;;;3.65;1.92;;;20.60;99.90;;;;;;4968331;28;20483;-78
2023/08/23 02:31:22;;;;;;;2.88;1.95;;;20.50;99.90;;;;;;4950921;28;20468;-79
2023/08/23 02:33:47;;;;;;;2.92;1.75;;;20.60;99.90;;;;;;4970736;28;20022;-78
2023/08/23 02:36:13;;;;;;;2.28;2.00;;;20.50;99.90;;;;;;4956477;28;20126;-79
2023/08/23 02:38:38;;;;;;;4.95;2.30;;;20.50;99.90;;;;;;4973507;28;20046;-79
2023/08/23 02:41:05;;;;;;;3.70;1.83;;;20.50;99.90;;;;;;4972564;28;20030;-79
2023/08/23 02:43:30;;;;;;;3.42;1.80;;;20.40;99.90;;;;;;4955156;28;20495;-78
2023/08/23 02:45:56;;;;;;;2.97;1.73;;;20.40;99.90;;;;;;4973465;28;20110;-79
2023/08/23 02:48:21;;;;;;;3.42;2.33;;;20.50;99.90;;;;;;4955976;28;20429;-79
2023/08/23 02:50:47;;;;;;;2.28;2.13;;;20.40;99.90;;;;;;4973344;28;20102;-78
2023/08/23 02:53:13;;;;;;;9.35;1.58;;;20.40;99.90;;;;;;4973999;28;20062;-79
2023/08/23 02:55:38;;;;;;;2.83;2.17;;;20.30;99.90;;;;;;4973696;28;20031;-79
2023/08/23 02:58:04;;;;;;;2.88;2.13;;;20.20;99.90;;;;;;4973479;28;20034;-79
2023/08/23 03:00:30;;;;;;;2.78;2.17;;;20.30;99.90;;;;;;4973259;28;20058;-79
2023/08/23 03:02:56;;;;;;;2.53;1.98;;;20.30;99.90;;;;;;4973076;28;20049;-77
2023/08/23 03:05:22;;;;;;;3.13;2.00;;;20.40;99.90;;;;;;4955668;28;20041;-78
2023/08/23 03:07:47;;;;;;;4.57;2.33;;;20.40;99.90;;;;;;4955761;28;20038;-78
2023/08/23 03:10:13;;;;;;;1.90;1.80;;;20.50;99.90;;;;;;4973201;28;20105;-78
2023/08/23 03:12:39;;;;;;;2.60;1.95;;;20.50;99.90;;;;;;4973313;28;20027;-78
2023/08/23 03:15:05;;;;;;;2.90;2.53;;;20.40;99.90;;;;;;4973398;28;20093;-77
2023/08/23 03:17:31;;;;;;;5.47;1.85;;;20.40;99.90;;;;;;4955049;28;20035;-79
2023/08/23 03:19:57;;;;;;;1.83;1.73;;;20.40;99.90;;;;;;4972849;28;20368;-78
2023/08/23 03:22:24;;;;;;;2.47;2.25;;;20.30;99.90;;;;;;4973105;28;20015;-78
2023/08/23 03:24:50;;;;;;;2.22;1.80;;;20.20;99.90;;;;;;4972744;28;20550;-78
2023/08/23 03:27:18;;;;;;;6.25;1.75;;;20.20;99.90;;;;;;4972919;28;20058;-78
2023/08/23 03:29:46;;;;;;;4.03;2.03;;;20.10;99.90;;;;;;4972880;28;20023;-78
2023/08/23 03:32:11;;;;;;;3.80;2.45;;;20.10;99.90;;;;;;4971438;28;20118;-78
2023/08/23 03:34:37;;;;;;;2.47;1.85;;;20.10;99.90;;;;;;4972803;28;20111;-78
2023/08/23 03:37:02;;;;;;;3.85;2.65;;;20.10;99.90;;;;;;4973123;28;20041;-79
2023/08/23 03:39:28;;;;;;;4.00;2.42;;;20.20;99.90;;;;;;4972727;28;21077;-79
2023/08/23 03:41:54;;;;;;;2.33;2.10;;;20.20;99.90;;;;;;4972852;28;20102;-78
2023/08/23 03:44:19;;;;;;;2.10;1.90;;;20.30;99.90;;;;;;4972478;28;20035;-79
2023/08/23 03:46:45;;;;;;;2.28;1.70;;;20.20;99.90;;;;;;4972843;28;20050;-79
2023/08/23 03:49:10;;;;;;;2.42;2.00;;;20.10;99.90;;;;;;4972876;28;20069;-78
2023/08/23 03:51:36;;;;;;;4.68;2.42;;;20.10;99.90;;;;;;4972739;28;20424;-78
2023/08/23 03:54:05;;;;;;;4.72;2.65;;;20.10;99.90;;;;;;4954976;28;20360;-79
2023/08/23 03:56:30;;;;;;;5.13;2.20;;;20.10;99.90;;;;;;4972582;28;20027;-78
2023/08/23 03:58:58;;;;;;;1.92;1.80;;;20.00;99.90;;;;;;4972292;28;20070;-79
2023/08/23 04:01:24;;;;;;;7.10;2.35;;;19.90;99.90;;;;;;4972607;28;20042;-78
2023/08/23 04:03:49;;;;;;;5.13;2.17;;;19.90;99.90;;;;;;4972231;28;20031;-78
2023/08/23 04:06:15;;;;;;;3.85;2.35;;;19.90;99.90;;;;;;4971156;28;20031;-78
2023/08/23 04:08:41;;;;;;;2.00;1.90;;;19.80;99.90;;;;;;4972488;28;20041;-79
2023/08/23 04:11:06;;;;;;;6.85;2.38;;;19.70;99.90;;;;;;4972388;28;20073;-79
2023/08/23 04:13:32;;;;;;;4.63;2.67;;;19.60;99.90;;;;;;4954862;28;20047;-79
2023/08/23 04:15:57;;;;;;;5.82;2.17;;;19.60;99.90;;;;;;4972221;28;20476;-79
2023/08/23 04:18:23;;;;;;;2.72;1.98;;;19.60;99.90;;;;;;4954352;28;20333;-80
2023/08/23 04:21:01;;;;;;;4.05;2.50;;;19.70;99.90;;;;;;4971980;28;20065;-75
2023/08/23 04:23:27;;;;;;;5.13;2.58;;;19.70;99.90;;;;;;4972277;28;20054;-75
2023/08/23 04:25:53;;;;;;;2.63;2.42;;;19.70;99.90;;;;;;4972068;28;20029;-74
2023/08/23 04:28:18;;;;;;;2.85;1.77;;;19.70;99.90;;;;;;4972452;28;20038;-76
2023/08/23 04:30:44;;;;;;;4.43;2.33;;;19.70;99.90;;;;;;4954454;28;20030;-76
2023/08/23 04:33:10;;;;;;;4.82;1.90;;;19.60;99.90;;;;;;4953998;28;20188;-78
2023/08/23 04:35:39;;;;;;;2.35;2.15;;;19.70;99.90;;;;;;4971820;28;20097;-77
2023/08/23 04:38:09;;;;;;;3.60;1.80;;;19.70;99.90;;;;;;4971726;28;20038;-77
2023/08/23 04:40:36;;;;;;;2.92;1.70;;;19.70;99.90;;;;;;4971811;28;20030;-76
2023/08/23 04:43:01;;;;;;;2.08;1.88;;;19.80;99.90;;;;;;4971839;28;20023;-76
2023/08/23 04:45:27;;;;;;;2.65;2.45;;;19.70;99.90;;;;;;4971768;28;20150;-76
2023/08/23 04:47:53;;;;;;;2.10;1.85;;;19.60;99.90;;;;;;4971172;28;20038;-76
2023/08/23 04:50:19;;;;;;;4.40;2.35;;;19.50;99.90;;;;;;4971517;28;20035;-76
2023/08/23 04:52:45;;;;;;;2.72;2.15;;;19.40;99.90;;;;;;4971409;28;20054;-77
2023/08/23 04:55:10;;;;;;;5.05;2.63;;;19.40;99.90;;;;;;4970973;28;20391;-75
2023/08/23 04:57:37;;;;;;;2.00;1.90;;;19.40;99.90;;;;;;4953767;28;20039;-76
2023/08/23 05:00:04;;;;;;;3.28;2.10;;;19.60;99.90;;;;;;4971376;28;20458;-76
2023/08/23 05:02:30;;;;;;;2.72;1.80;;;19.60;99.90;;;;;;4971527;28;20110;-77
2023/08/23 05:04:55;;;;;;;3.45;2.75;;;19.60;99.90;;;;;;4971353;28;20042;-76
2023/08/23 05:07:21;;;;;;;3.25;2.20;;;19.60;99.90;;;;;;4954252;28;20029;-77
2023/08/23 05:09:47;;;;;;;2.60;1.83;;;19.60;99.90;;;;;;4953885;28;20023;-76
2023/08/23 05:12:12;;;;;;;4.93;2.72;;;19.60;99.90;;;;;;4971051;28;20424;-76
2023/08/23 05:14:38;;;;;;;16.45;10.68;;;19.70;99.90;;;;;;4971064;28;20042;-77
2023/08/23 05:17:03;;;;;;;5.30;4.03;;;19.70;99.90;;;;;;4970486;28;20045;-77
2023/08/23 05:19:29;;;;;;;11.05;2.97;;;19.80;99.90;;;;;;4969657;28;20483;-76
2023/08/23 05:21:55;;;;;;;4.97;3.33;;;19.90;99.90;;;;;;4970922;28;20033;-76
2023/08/23 05:24:20;;;;;;;9.40;6.57;;;19.90;99.90;;;;;;4971001;28;20039;-76
2023/08/23 05:26:46;;;;;;;5.63;3.50;;;20.00;99.90;;;;;;4971167;28;20023;-76
2023/08/23 05:29:11;;;;;;;3.63;3.30;;;20.20;99.90;;;;;;4953442;28;20489;-76
2023/08/23 05:31:37;;;;;;;3.33;2.00;;;20.20;99.90;;;;;;4970303;28;20027;-78
2023/08/23 05:34:03;;;;;;;6.60;2.97;;;20.20;99.90;;;;;;4953133;28;20118;-76
2023/08/23 05:36:29;;;;;;;2.75;2.28;;;20.30;99.90;;;;;;4970641;28;20124;-77
2023/08/23 05:38:55;;;;;;;3.65;2.47;;;20.40;99.90;;;;;;4970452;28;20122;-77
2023/08/23 05:41:21;;;;;;;2.90;2.25;;;20.40;99.90;;;;;;4953075;28;20122;-78
2023/08/23 05:43:46;;;;;;;6.25;2.15;;;20.50;99.90;;;;;;4970605;28;20034;-78
2023/08/23 05:46:12;;;;;;;2.60;2.03;;;20.50;99.90;;;;;;4970348;28;20072;-77
2023/08/23 05:48:37;;;;;;;2.28;1.67;;;20.50;99.90;;;;;;4953014;28;20027;-76
2023/08/23 05:51:04;;;;;;;3.58;1.73;;;20.60;99.90;;;;;;4970385;28;20027;-77
2023/08/23 05:53:30;;;;;;;2.63;2.25;;;20.70;99.90;;;;;;4968862;28;20046;-76
2023/08/23 05:55:56;;;;;;;4.82;2.47;;;20.90;99.90;;;;;;4970179;28;20029;-78
2023/08/23 05:58:21;;;;;;;2.60;2.35;;;21.00;99.90;;;;;;4970327;28;20408;-76
2023/08/23 06:00:48;;;;;;;2.13;1.85;;;21.10;99.90;;;;;;4970136;28;20038;-77
2023/08/23 06:03:15;;;;;;;3.85;2.15;;;21.20;99.90;;;;;;4970054;28;20110;-74
2023/08/23 06:05:41;;;;;;;2.63;2.20;;;21.30;99.90;;;;;;4969971;28;20058;-75
2023/08/23 06:08:07;;;;;;;3.75;1.80;;;21.40;99.90;;;;;;4969848;28;20035;-76
2023/08/23 06:10:33;;;;;;;2.40;2.17;;;21.50;99.90;;;;;;4970142;28;20103;-76
2023/08/23 06:12:59;;;;;;;6.55;3.03;;;21.50;99.90;;;;;;4970328;28;20118;-77
2023/08/23 06:15:24;;;;;;;7.47;3.42;;;21.50;99.90;;;;;;4970289;28;20030;-76
2023/08/23 06:17:50;;;;;;;3.67;3.17;;;21.60;99.90;;;;;;4952145;28;20038;-76
2023/08/23 06:20:16;;;;;;;3.80;3.25;;;21.80;99.90;;;;;;4970499;28;20030;-76
2023/08/23 06:22:43;;;;;;;3.75;3.00;;;21.80;99.90;;;;;;4952924;28;20031;-76
2023/08/23 06:25:09;;;;;;;4.15;3.30;;;21.80;99.90;;;;;;4969958;28;20475;-77
2023/08/23 06:27:35;;;;;;;5.78;3.22;;;21.80;99.90;;;;;;4969860;28;20034;-75
2023/08/23 06:30:02;;;;;;;7.80;3.17;;;21.90;99.90;;;;;;4952718;28;20026;-77
2023/08/23 06:32:27;;;;;;;6.70;3.25;;;22.00;99.90;;;;;;4970010;28;20029;-78
2023/08/23 06:34:53;;;;;;;7.05;3.10;;;22.00;99.90;;;;;;4970007;28;20292;-79
2023/08/23 06:37:19;;;;;;;11.32;4.10;;;22.10;99.90;;;;;;4969615;28;20031;-74
2023/08/23 06:39:44;;;;;;;9.35;3.63;;;22.10;99.90;;;;;;4952373;28;20038;-74
2023/08/23 06:42:10;;;;;;;3.53;2.78;;;22.10;99.90;;;;;;4969832;28;20081;-71
2023/08/23 06:44:36;;;;;;;4.38;3.08;;;22.20;99.90;;;;;;4969861;28;20039;-79
2023/08/23 06:47:01;;;;;;;7.75;3.95;;;22.30;99.90;;;;;;4952421;28;20019;-76
2023/08/23 06:49:27;;;;;;;3.95;3.05;;;22.40;99.90;;;;;;4952456;28;20027;-77
2023/08/23 06:51:53;;;;;;;11.25;5.57;;;22.30;99.90;;;;;;4953044;28;20030;-78
2023/08/23 06:54:18;;;;;;;6.60;3.70;;;22.50;99.90;;;;;;4969690;28;20042;-77
2023/08/23 06:56:46;;;;;;;3.95;3.08;;;22.70;99.90;;;;;;4951602;28;20034;-78
2023/08/23 06:59:12;;;;;;;3.75;3.45;;;22.80;99.90;;;;;;4969076;28;20491;-76
2023/08/23 07:01:38;;;;;;;3.70;3.00;;;22.90;99.90;;;;;;4968552;28;20065;-79
2023/08/23 07:04:03;;;;;;;4.45;3.72;;;22.80;99.90;;;;;;4969057;28;20034;-79
2023/08/23 07:06:30;;;;;;;5.35;3.28;;;22.80;99.90;;;;;;4969119;28;20482;-78
2023/08/23 07:08:55;;;;;;;5.38;3.05;;;22.80;99.90;;;;;;4969019;28;20518;-78
2023/08/23 07:11:21;;;;;;;8.48;3.65;;;22.80;99.90;;;;;;4969197;28;20156;-78
2023/08/23 07:13:47;;;;;;;3.33;2.70;;;22.70;99.90;;;;;;4969296;28;20359;-77
2023/08/23 07:16:12;;;;;;;6.75;4.18;;;22.60;99.90;;;;;;4968255;28;20081;-77
2023/08/23 07:18:38;;;;;;;3.63;3.33;;;22.70;99.90;;;;;;4969416;28;20043;-78
2023/08/23 07:21:03;;;;;;;8.82;4.10;;;22.60;99.90;;;;;;4972343;28;20023;-78
2023/08/23 07:23:29;;;;;;;4.22;3.80;;;22.70;99.90;;;;;;4973017;28;20023;-76
2023/08/23 07:25:55;;;;;;;4.70;3.75;;;22.90;99.90;;;;;;4972955;28;20115;-76
2023/08/23 07:28:20;;;;;;;5.72;2.88;;;23.00;99.90;;;;;;4955527;28;20121;-76
2023/08/23 07:30:57;;;;;;;6.25;3.92;;;23.00;99.90;;;;;;4972943;28;20054;-76
2023/08/23 07:33:23;;;;;;;7.28;3.65;;;23.10;99.90;;;;;;4971028;28;20023;-79
2023/08/23 07:35:59;;;;;;;4.38;3.97;;;23.10;99.90;;;;;;4955646;28;20023;-79
2023/08/23 07:38:26;;;;;;;4.90;3.55;;;23.20;99.90;;;;;;4972614;28;20026;-78
2023/08/23 07:40:57;;;;;;;4.50;3.25;;;23.30;99.90;;;;;;4972602;28;20111;-74
2023/08/23 07:43:23;;;;;;;7.50;3.47;;;23.80;99.90;;;;;;4973060;28;20149;-76
2023/08/23 07:45:56;;;;;;;3.88;3.22;;;24.00;99.90;;;;;;4972917;28;20031;-76
2023/08/23 07:48:23;;;;;;;4.70;3.10;;;23.90;99.90;;;;;;4971000;28;20073;-76
2023/08/23 07:50:49;;;;;;;5.03;3.58;;;24.00;99.90;;;;;;4971084;28;20058;-76
2023/08/23 07:53:16;;;;;;;8.35;3.40;;;23.80;99.90;;;;;;4972089;28;20038;-76
2023/08/23 07:55:41;;;;;;;3.67;3.30;;;23.80;99.90;;;;;;4979466;28;20129;-77
2023/08/23 07:58:07;;;;;;;4.15;3.10;;;23.80;99.90;;;;;;4987467;28;20125;-78
2023/08/23 08:00:32;;;;;;;4.53;3.13;;;23.60;99.90;;;;;;4990552;28;20041;-75
2023/08/23 08:02:58;;;;;;;15.98;3.88;;;23.70;99.90;;;;;;4990817;28;20471;-76
2023/08/23 08:05:24;;;;;;;3.33;3.03;;;23.90;99.90;;;;;;4982181;28;20610;-75
2023/08/23 08:07:49;;;;;;;3.67;3.17;;;24.00;99.90;;;;;;4990493;28;20057;-73
2023/08/23 08:10:15;;;;;;;5.35;3.85;;;24.00;99.90;;;;;;4972872;28;20470;-75
2023/08/23 08:12:41;;;;;;;4.45;3.08;;;24.20;99.90;;;;;;4973379;28;20019;-75
2023/08/23 08:15:09;;;;;;;3.70;3.13;;;24.20;99.90;;;;;;4990816;28;20033;-75
2023/08/23 08:17:34;;;;;;;4.53;3.40;;;24.10;99.90;;;;;;4989980;28;20412;-75
2023/08/23 08:20:04;;;;;;;5.20;3.55;;;24.20;99.90;;;;;;4990226;28;20029;-75
2023/08/23 08:22:31;;;;;;;5.93;3.10;;;24.40;99.90;;;;;;4968335;28;20080;-77
2023/08/23 08:24:57;;;;;;;6.43;3.72;;;25.10;99.90;;;;;;4990896;28;20026;-79
2023/08/23 08:27:23;;;;;;;4.97;3.38;;;25.70;99.90;;;;;;4990026;28;20022;-78
2023/08/23 08:29:49;;;;;;;7.88;4.30;;;26.30;99.90;;;;;;4989760;28;20157;-76
2023/08/23 08:32:15;;;;;;;6.15;3.50;;;27.00;99.90;;;;;;4989161;28;20030;-75
2023/08/23 08:34:40;;;;;;;4.82;3.47;;;27.30;99.90;;;;;;4972423;28;20031;-76
2023/08/23 08:37:06;;;;;;;6.13;3.80;;;27.90;99.90;;;;;;4990306;28;20118;-72
2023/08/23 08:39:32;;;;;;;4.55;3.70;;;28.00;98.80;;;;;;4990260;28;20031;-78
2023/08/23 08:41:59;;;;;;;7.00;3.88;;;27.70;99.80;;;;;;4972916;28;20053;-79
2023/08/23 08:44:25;;;;;;;11.45;3.58;;;27.00;99.50;;;;;;4990356;28;20030;-76
2023/08/23 08:46:51;;;;;;;4.63;3.47;;;27.60;98.80;;;;;;4990071;28;20027;-78
2023/08/23 08:49:17;;;;;;;6.05;4.03;;;27.50;98.90;;;;;;4974841;28;20026;-79
2023/08/23 08:51:46;;;;;;;5.55;3.85;;;28.20;98.80;;;;;;4972061;28;20220;-80
2023/08/23 08:54:15;;;;;;;7.18;3.95;;;28.40;97.20;;;;;;4989955;28;20089;-77
2023/08/23 08:56:42;;;;;;;5.60;3.83;;;28.20;97.30;;;;;;4974410;28;20033;-77
2023/08/23 08:59:08;;;;;;;9.68;4.10;;;28.60;96.80;;;;;;4995503;28;20150;-77
2023/08/23 09:01:35;;;;;;;7.82;3.63;;;28.70;96.10;;;;;;4989619;28;20069;-77
2023/08/23 09:04:01;;;;;;;4.03;3.65;;;28.70;96.10;;;;;;4978484;28;20038;-81
2023/08/23 09:06:27;;;;;;;5.95;3.75;;;29.20;95.10;;;;;;4976831;28;20026;-80
2023/08/23 09:08:53;;;;;;;6.47;3.13;;;28.90;94.90;;;;;;4990596;28;20579;-81
2023/08/23 09:11:19;;;;;;;4.63;3.92;;;28.70;95.00;;;;;;4989796;28;20019;-79
2023/08/23 09:13:45;;;;;;;4.72;3.60;;;28.60;95.50;;;;;;4989656;28;20061;-79
2023/08/23 09:16:13;;;;;;;5.55;3.30;;;28.10;95.90;;;;;;4989295;28;20049;-79
2023/08/23 09:18:46;;;;;;;6.07;3.35;;;27.90;96.10;;;;;;4971890;28;20395;-80
2023/08/23 09:21:13;;;;;;;6.45;3.70;;;28.50;96.30;;;;;;4971827;28;20026;-79
2023/08/23 09:23:39;;;;;;;4.55;2.72;;;29.00;95.30;;;;;;4989640;28;20029;-78
2023/08/23 09:26:06;;;;;;;4.75;2.90;;;29.60;93.50;;;;;;4989539;28;20054;-79
2023/08/23 09:28:32;;;;;;;3.42;3.13;;;29.20;93.40;;;;;;4989622;28;20468;-77
2023/08/23 09:30:58;;;;;;;4.50;3.22;;;28.40;94.30;;;;;;4988947;28;20045;-76
2023/08/23 09:33:24;;;;;;;4.55;3.30;;;28.20;95.10;;;;;;4971807;28;20026;-81
2023/08/23 09:35:50;;;;;;;6.82;3.17;;;28.20;95.40;;;;;;4989435;28;20053;-81
2023/08/23 09:38:21;;;;;;;9.40;3.10;;;28.30;96.00;;;;;;4989302;28;20058;-78
2023/08/23 09:40:48;;;;;;;7.75;3.08;;;28.80;94.70;;;;;;4972049;28;20027;-78
2023/08/23 09:43:17;;;;;;;7.07;3.95;;;28.50;94.70;;;;;;4988924;28;20513;-78
2023/08/23 09:45:43;;;;;;;;;;;28.70;94.50;;;;;;4990562;28;20033;-79
2023/08/23 09:48:10;;;;;;;4.43;3.08;;;29.30;93.70;;;;;;4989801;28;19906;-76
2023/08/23 09:50:36;;;;;;;6.00;3.13;;;29.40;93.40;;;;;;4972142;28;20522;-76
2023/08/23 09:53:12;;;;;;;4.90;3.33;;;29.90;92.80;;;;;;4988856;28;20084;-76
2023/08/23 09:55:39;;;;;;;4.20;2.80;;;30.20;92.60;;;;;;4989187;28;20037;-75
2023/08/23 09:58:05;;;;;;;4.93;3.65;;;29.60;92.00;;;;;;4988818;28;20026;-76
2023/08/23 10:00:30;;;;;;;6.30;3.50;;;29.60;92.70;;;;;;4984978;28;20050;-75
2023/08/23 10:02:57;;;;;;;3.47;3.17;;;29.90;92.40;;;;;;4988427;28;20068;-76
2023/08/23 10:05:25;;;;;;;3.58;2.72;;;29.50;92.70;;;;;;4988627;28;20027;-76
2023/08/23 10:07:53;;;;;;;6.68;3.13;;;29.50;92.20;;;;;;4989485;28;20169;-77
2023/08/23 10:10:19;;;;;;;3.35;3.05;;;29.60;92.20;;;;;;4990039;28;20026;-75
2023/08/23 10:12:48;;;;;;;8.68;2.88;;;30.00;93.40;;;;;;4989279;28;20392;-75
2023/08/23 10:15:15;;;;;;;;;;;29.70;92.20;;;;;;4990514;28;20029;-75
2023/08/23 10:17:43;;;;;;;8.90;3.70;;;29.50;92.10;;;;;;4990345;28;19932;-75
2023/08/23 10:20:10;;;;;;;4.32;3.13;;;29.40;92.20;;;;;;4987336;28;20403;-78
2023/08/23 10:22:36;;;;;;;5.35;3.25;;;29.40;92.10;;;;;;4989313;28;20069;-76
2023/08/23 10:25:13;;;;;;;6.40;3.45;;;29.30;91.90;;;;;;4990615;28;20028;-76
2023/08/23 10:27:39;;;;;;;2.90;2.63;;;29.50;92.40;;;;;;4992767;28;20038;-78
2023/08/23 10:30:08;;;;;;;4.20;2.95;;;30.00;92.40;;;;;;4992951;28;20022;-77
2023/08/23 10:32:36;;;;;;;3.83;3.33;;;30.20;92.40;;;;;;4987849;28;20491;-78
2023/08/23 10:35:02;;;;;;;3.90;3.05;;;30.60;91.40;;;;;;4990463;28;20050;-77
2023/08/23 10:37:28;;;;;;;6.60;3.03;;;30.50;90.80;;;;;;4987545;28;20494;-78
2023/08/23 10:39:55;;;;;;;5.07;3.30;;;30.80;90.60;;;;;;4989268;28;20034;-77
2023/08/23 10:42:22;;;;;;;5.57;3.05;;;30.60;90.20;;;;;;4989299;28;20034;-80
2023/08/23 10:44:57;;;;;;;3.65;2.90;;;30.70;90.30;;;;;;4986798;28;20023;-79
2023/08/23 10:47:23;;;;;;;4.30;2.83;;;31.10;89.80;;;;;;4986846;28;20057;-78
2023/08/23 10:49:50;;;;;;;5.35;2.80;;;31.20;89.00;;;;;;4986263;28;20018;-78
2023/08/23 10:52:16;;;;;;;4.32;2.92;;;31.40;90.00;;;;;;4986669;28;20032;-78
2023/08/23 10:54:42;;;;;;;3.05;2.85;;;31.10;88.30;;;;;;4990247;28;20026;-78
2023/08/23 10:57:08;;;;;;;5.85;2.95;;;31.10;88.20;;;;;;4990593;28;20525;-79
2023/08/23 10:59:34;;;;;;;4.00;3.50;;;31.50;88.20;;;;;;4990996;28;20237;-78
2023/08/23 11:02:00;;;;;;;3.40;3.08;;;31.80;86.80;;;;;;4991183;28;20050;-79
2023/08/23 11:04:26;;;;;;;5.85;3.30;;;31.50;89.20;;;;;;4989521;28;20121;-77
2023/08/23 11:06:51;;;;;;;5.82;2.95;;;31.60;87.80;;;;;;4991099;28;20459;-79
2023/08/23 11:09:17;;;;;;;4.30;3.50;;;32.00;87.20;;;;;;4992253;28;20588;-78
2023/08/23 11:11:43;;;;;;;9.20;3.15;;;31.40;86.10;;;;;;4991622;28;20022;-77
2023/08/23 11:14:09;;;;;;;3.75;3.00;;;31.30;86.80;;;;;;4992125;28;20387;-78
2023/08/23 11:16:35;;;;;;;6.10;3.25;;;32.00;88.40;;;;;;4992316;28;20471;-78
2023/08/23 11:19:05;;;;;;;6.88;2.72;;;31.30;87.00;;;;;;4990920;28;20251;-78
2023/08/23 11:21:32;;;;;;;7.55;3.03;;;31.60;86.00;;;;;;4990681;28;20039;-78
2023/08/23 11:24:01;;;;;;;3.88;2.97;;;31.70;86.50;;;;;;4992035;28;20438;-78
2023/08/23 11:26:26;;;;;;;5.00;2.60;;;32.40;86.00;;;;;;4991628;28;20463;-78
2023/08/23 11:28:52;;;;;;;6.75;3.42;;;32.80;84.40;;;;;;4991384;28;20022;-78
2023/08/23 11:31:18;;;;;;;3.35;2.63;;;32.40;83.90;;;;;;4992687;28;20026;-78
2023/08/23 11:33:44;;;;;;;5.72;2.97;;;32.50;83.10;;;;;;4992169;28;20483;-78
2023/08/23 11:36:09;;;;;;;4.25;2.85;;;32.60;84.30;;;;;;4992609;28;20027;-78
2023/08/23 11:38:35;;;;;;;5.75;3.45;;;32.70;83.20;;;;;;4992362;28;20415;-79
2023/08/23 11:41:01;;;;;;;2.90;2.65;;;33.30;81.50;;;;;;4991544;28;20038;-77
2023/08/23 11:43:28;;;;;;;3.22;2.85;;;33.10;80.60;;;;;;4991409;28;20065;-78
2023/08/23 11:45:54;;;;;;;4.80;2.60;;;32.80;80.20;;;;;;4990970;28;20118;-77
2023/08/23 11:48:23;;;;;;;3.85;2.63;;;33.60;80.40;;;;;;4992429;28;20098;-79
2023/08/23 11:50:52;;;;;;;5.63;2.85;;;34.50;79.80;;;;;;4992746;28;20034;-78
2023/08/23 11:53:18;;;;;;;4.13;2.53;;;34.80;75.60;;;;;;4990747;28;20033;-78
2023/08/23 11:55:44;;;;;;;3.13;2.58;;;34.20;76.20;;;;;;4991050;28;20030;-78
2023/08/23 11:58:12;;;;;;;3.33;2.58;;;34.10;77.00;;;;;;4992031;28;20058;-78
2023/08/23 12:00:38;;;;;;;2.80;2.60;;;34.20;77.70;;;;;;4990484;28;20081;-78
2023/08/23 12:03:04;;;;;;;3.22;2.40;;;34.20;76.10;;;;;;4991916;28;20356;-78
2023/08/23 12:05:29;;;;;;;2.92;2.50;;;34.20;75.30;;;;;;4991981;28;20018;-77
2023/08/23 12:07:55;;;;;;;3.78;2.85;;;34.50;75.80;;;;;;4992327;28;20030;-77
2023/08/23 12:10:21;;;;;;;3.90;2.50;;;34.20;75.10;;;;;;4990564;28;20036;-78
2023/08/23 12:12:47;;;;;;;4.07;2.67;;;34.70;74.20;;;;;;4990698;28;20026;-77
2023/08/23 12:15:12;;;;;;;3.60;2.65;;;35.10;74.60;;;;;;4991906;28;20464;-78
2023/08/23 12:17:38;;;;;;;4.55;2.90;;;35.00;73.40;;;;;;4991726;28;20053;-77
2023/08/23 12:20:07;;;;;;;5.90;2.88;;;34.10;74.10;;;;;;4989971;28;20117;-77
2023/08/23 12:22:33;;;;;;;10.48;3.47;;;34.30;75.00;;;;;;4991787;28;20046;-77
2023/08/23 12:24:58;;;;;;;2.53;2.03;;;35.00;74.50;;;;;;4991716;28;20065;-78
2023/08/23 12:27:24;;;;;;;7.35;2.80;;;35.10;71.90;;;;;;4990586;28;20046;-78
2023/08/23 12:29:50;;;;;;;3.03;2.70;;;35.20;72.00;;;;;;4990130;28;20046;-77
2023/08/23 12:32:15;;;;;;;4.40;2.55;;;35.10;72.50;;;;;;4990068;28;20120;-77
2023/08/23 12:34:41;;;;;;;2.65;2.15;;;35.80;70.70;;;;;;4989839;28;20029;-77
2023/08/23 12:37:06;;;;;;;5.13;2.50;;;35.50;72.00;;;;;;4990425;28;20498;-77
2023/08/23 12:39:32;;;;;;;5.57;2.30;;;35.80;69.80;;;;;;4990119;28;20034;-78
2023/08/23 12:41:58;;;;;;;7.35;2.30;;;35.90;69.80;;;;;;4991348;28;20463;-77
2023/08/23 12:44:24;;;;;;;2.50;2.30;;;36.00;69.10;;;;;;4989836;28;20152;-78